KRH645R EGVN-KADW
Flight info
| Callsign | KRH645R |
|---|---|
| Flight time | 5h 50m |
| Altitude | 36000 |
| Route | NAXAT DCT KISWO DCT VATRY DCT ABAGU DCT BUNON DCT DOLIP DCT XETBO DCT LIMRI/M078F360 NATF TUDEP/N0448F360 DCT HUL DCT CAMTN DCT FLOSI DCT MXE DCT MURPH DCT BAL DCT ANCRR DCT LAFLN SPISY2 |
| Aircraft | A21N/M-SDE2E3FGHIJ1RWXY/LB1 |
Departure
| Time | 2026-05-05 14:35 |
|---|---|
| Airport | RAF Brize Norton (EGVN) |
Arrival
| Time | 2026-05-05 20:25 |
|---|---|
| Airport | Joint Base Andrews (KADW) |
| Time | Latitude | Longitude | Altitude | Speed | Heading |
|---|---|---|---|---|---|
| 2026-05-05 14:14 | 51.75864 | -1.57381 | 267 ft | 0 kts | 77° |
| 2026-05-05 14:30 | 51.75865 | -1.57370 | 267 ft | 7 kts | 78° |
| 2026-05-05 14:30 | 51.75886 | -1.57289 | 267 ft | 7 kts | 27° |
| 2026-05-05 14:30 | 51.75915 | -1.57235 | 267 ft | 7 kts | 87° |
| 2026-05-05 14:30 | 51.75894 | -1.57144 | 267 ft | 13 kts | 114° |
| 2026-05-05 14:31 | 51.75846 | -1.57012 | 267 ft | 15 kts | 128° |
| 2026-05-05 14:31 | 51.75762 | -1.56905 | 267 ft | 16 kts | 154° |
| 2026-05-05 14:31 | 51.75648 | -1.56849 | 267 ft | 18 kts | 166° |
| 2026-05-05 14:31 | 51.75524 | -1.56788 | 267 ft | 20 kts | 165° |
| 2026-05-05 14:32 | 51.75388 | -1.56721 | 267 ft | 21 kts | 164° |
| 2026-05-05 14:32 | 51.75240 | -1.56655 | 267 ft | 22 kts | 163° |
| 2026-05-05 14:32 | 51.75154 | -1.56598 | 267 ft | 4 kts | 123° |
| 2026-05-05 14:32 | 51.75152 | -1.56561 | 267 ft | 3 kts | 83° |
| 2026-05-05 14:33 | 51.75156 | -1.56513 | 267 ft | 5 kts | 83° |
| 2026-05-05 14:33 | 51.75164 | -1.56443 | 267 ft | 7 kts | 74° |
| 2026-05-05 14:33 | 51.75180 | -1.56356 | 267 ft | 9 kts | 73° |
| 2026-05-05 14:33 | 51.75200 | -1.56248 | 268 ft | 11 kts | 71° |
| 2026-05-05 14:34 | 51.75251 | -1.56155 | 268 ft | 12 kts | 22° |
| 2026-05-05 14:34 | 51.75329 | -1.56162 | 269 ft | 11 kts | 346° |
| 2026-05-05 14:34 | 51.75383 | -1.56195 | 269 ft | 5 kts | 317° |
| 2026-05-05 14:34 | 51.75382 | -1.56218 | 269 ft | 6 kts | 250° |
| 2026-05-05 14:35 | 51.75330 | -1.56500 | 269 ft | 60 kts | 254° |
| 2026-05-05 14:35 | 51.75135 | -1.57552 | 268 ft | 137 kts | 255° |
| 2026-05-05 14:35 | 51.74838 | -1.59310 | 540 ft | 175 kts | 257° |
| 2026-05-05 14:35 | 51.74538 | -1.61183 | 1404 ft | 171 kts | 258° |
| 2026-05-05 14:36 | 51.74209 | -1.63068 | 2164 ft | 178 kts | 259° |
| 2026-05-05 14:36 | 51.73792 | -1.65107 | 2696 ft | 207 kts | 250° |
| 2026-05-05 14:36 | 51.73356 | -1.67485 | 2983 ft | 239 kts | 269° |
| 2026-05-05 14:36 | 51.73784 | -1.70087 | 3589 ft | 247 kts | 308° |
| 2026-05-05 14:37 | 51.75109 | -1.71807 | 4413 ft | 248 kts | 333° |
| 2026-05-05 14:37 | 51.76575 | -1.73359 | 5116 ft | 259 kts | 315° |
| 2026-05-05 14:37 | 51.77403 | -1.75960 | 5837 ft | 269 kts | 282° |
| 2026-05-05 14:37 | 51.77579 | -1.78996 | 6624 ft | 273 kts | 274° |
| 2026-05-05 14:38 | 51.77689 | -1.82069 | 7413 ft | 276 kts | 275° |
| 2026-05-05 14:38 | 51.77726 | -1.82812 | 7583 ft | 276 kts | 276° |
| 2026-05-05 14:38 | 51.77859 | -1.84988 | 8037 ft | 282 kts | 277° |
| 2026-05-05 14:38 | 51.78114 | -1.88162 | 9083 ft | 286 kts | 279° |
| 2026-05-05 14:39 | 51.78411 | -1.91334 | 10333 ft | 287 kts | 280° |
| 2026-05-05 14:39 | 51.78875 | -1.94569 | 11010 ft | 308 kts | 290° |
| 2026-05-05 14:39 | 51.79946 | -1.97666 | 11686 ft | 325 kts | 309° |
| 2026-05-05 14:39 | 51.81567 | -2.00282 | 12636 ft | 334 kts | 318° |
| 2026-05-05 14:40 | 51.83354 | -2.02753 | 13670 ft | 341 kts | 319° |
| 2026-05-05 14:40 | 51.85194 | -2.05247 | 14586 ft | 348 kts | 319° |
| 2026-05-05 14:40 | 51.87039 | -2.07755 | 15508 ft | 354 kts | 319° |
| 2026-05-05 14:40 | 51.88958 | -2.10376 | 16504 ft | 358 kts | 318° |
| 2026-05-05 14:41 | 51.90865 | -2.12996 | 17460 ft | 362 kts | 318° |
| 2026-05-05 14:41 | 51.92800 | -2.15662 | 18364 ft | 367 kts | 318° |
| 2026-05-05 14:41 | 51.94750 | -2.18357 | 19180 ft | 371 kts | 317° |
| 2026-05-05 14:41 | 51.96728 | -2.21095 | 19885 ft | 377 kts | 318° |
| 2026-05-05 14:42 | 51.98714 | -2.23846 | 20595 ft | 383 kts | 317° |
| 2026-05-05 14:42 | 52.00778 | -2.26712 | 21355 ft | 388 kts | 318° |
| 2026-05-05 14:42 | 52.02842 | -2.29581 | 22086 ft | 393 kts | 317° |
| 2026-05-05 14:42 | 52.04899 | -2.32443 | 22855 ft | 396 kts | 317° |
| 2026-05-05 14:43 | 52.06998 | -2.35368 | 23554 ft | 400 kts | 317° |
| 2026-05-05 14:43 | 52.09121 | -2.38331 | 24113 ft | 405 kts | 317° |
| 2026-05-05 14:43 | 52.11269 | -2.41332 | 24674 ft | 408 kts | 317° |
| 2026-05-05 14:43 | 52.13431 | -2.44357 | 25235 ft | 412 kts | 317° |
| 2026-05-05 14:44 | 52.15612 | -2.47414 | 25766 ft | 415 kts | 317° |
| 2026-05-05 14:44 | 52.17809 | -2.50497 | 26298 ft | 419 kts | 317° |
| 2026-05-05 14:44 | 52.20055 | -2.53651 | 26815 ft | 422 kts | 317° |
| 2026-05-05 14:44 | 52.22257 | -2.56748 | 27307 ft | 425 kts | 317° |
| 2026-05-05 14:45 | 52.24500 | -2.59907 | 27794 ft | 428 kts | 317° |
| 2026-05-05 14:45 | 52.26763 | -2.63097 | 28273 ft | 431 kts | 317° |
| 2026-05-05 14:45 | 52.29042 | -2.66317 | 28706 ft | 435 kts | 317° |
| 2026-05-05 14:45 | 52.31341 | -2.69569 | 29142 ft | 438 kts | 317° |
| 2026-05-05 14:46 | 52.33685 | -2.72887 | 29577 ft | 441 kts | 317° |
| 2026-05-05 14:46 | 52.36010 | -2.76184 | 29985 ft | 445 kts | 318° |
| 2026-05-05 14:46 | 52.38326 | -2.79472 | 30341 ft | 447 kts | 318° |
| 2026-05-05 14:46 | 52.40678 | -2.82819 | 30725 ft | 448 kts | 318° |
| 2026-05-05 14:47 | 52.43058 | -2.86212 | 31200 ft | 448 kts | 318° |
| 2026-05-05 14:47 | 52.45402 | -2.89556 | 31703 ft | 446 kts | 318° |
| 2026-05-05 14:47 | 52.47704 | -2.92846 | 32178 ft | 444 kts | 318° |
| 2026-05-05 14:47 | 52.50028 | -2.96174 | 32625 ft | 443 kts | 319° |
| 2026-05-05 14:48 | 52.52349 | -2.99501 | 33049 ft | 442 kts | 319° |
| 2026-05-05 14:48 | 52.54655 | -3.02811 | 33607 ft | 438 kts | 319° |
| 2026-05-05 14:48 | 52.56895 | -3.06199 | 34018 ft | 438 kts | 314° |
| 2026-05-05 14:48 | 52.58852 | -3.10032 | 34320 ft | 438 kts | 305° |
| 2026-05-05 14:49 | 52.60398 | -3.14341 | 34650 ft | 438 kts | 295° |
| 2026-05-05 14:49 | 52.61475 | -3.19017 | 34984 ft | 438 kts | 285° |
| 2026-05-05 14:49 | 52.62051 | -3.23929 | 35319 ft | 437 kts | 276° |
| 2026-05-05 14:49 | 52.62172 | -3.28977 | 35678 ft | 435 kts | 270° |
| 2026-05-05 14:50 | 52.62133 | -3.33882 | 35957 ft | 436 kts | 269° |
| 2026-05-05 14:50 | 52.62025 | -3.38867 | 36005 ft | 435 kts | 268° |
| 2026-05-05 14:50 | 52.61744 | -3.48822 | 36016 ft | 436 kts | 268° |
| 2026-05-05 14:51 | 52.61473 | -3.58764 | 36016 ft | 433 kts | 268° |
| 2026-05-05 14:51 | 52.61225 | -3.68675 | 36002 ft | 433 kts | 268° |
| 2026-05-05 14:52 | 52.60983 | -3.78572 | 36014 ft | 433 kts | 268° |
| 2026-05-05 14:52 | 52.60733 | -3.88468 | 36018 ft | 433 kts | 268° |
| 2026-05-05 14:53 | 52.60474 | -3.98364 | 36018 ft | 432 kts | 268° |
| 2026-05-05 14:53 | 52.60206 | -4.08237 | 36023 ft | 432 kts | 268° |
| 2026-05-05 14:54 | 52.59931 | -4.18089 | 36012 ft | 430 kts | 268° |
| 2026-05-05 14:54 | 52.59648 | -4.27924 | 36028 ft | 432 kts | 267° |
| 2026-05-05 14:55 | 52.59356 | -4.37773 | 36027 ft | 430 kts | 267° |
| 2026-05-05 14:55 | 52.59056 | -4.47612 | 36031 ft | 431 kts | 267° |
| 2026-05-05 14:56 | 52.58750 | -4.57382 | 36029 ft | 429 kts | 267° |
| 2026-05-05 14:56 | 52.58436 | -4.67171 | 36045 ft | 429 kts | 267° |
| 2026-05-05 14:57 | 52.58114 | -4.76944 | 36044 ft | 429 kts | 267° |
| 2026-05-05 14:57 | 52.57781 | -4.86786 | 36054 ft | 437 kts | 267° |
| 2026-05-05 14:58 | 52.57432 | -4.96905 | 36059 ft | 449 kts | 267° |
| 2026-05-05 14:58 | 52.57183 | -5.07162 | 36055 ft | 449 kts | 269° |
| 2026-05-05 14:59 | 52.57061 | -5.17423 | 36058 ft | 449 kts | 269° |
| 2026-05-05 14:59 | 52.56926 | -5.27678 | 36056 ft | 448 kts | 269° |
| 2026-05-05 15:00 | 52.56789 | -5.36196 | 36060 ft | 449 kts | 268° |
| 2026-05-05 15:00 | 52.56572 | -5.48161 | 36063 ft | 448 kts | 268° |
| 2026-05-05 15:01 | 52.56373 | -5.58416 | 36057 ft | 449 kts | 268° |
| 2026-05-05 15:01 | 52.56167 | -5.68661 | 36056 ft | 449 kts | 268° |
| 2026-05-05 15:02 | 52.55952 | -5.78918 | 36055 ft | 449 kts | 268° |
| 2026-05-05 15:02 | 52.55729 | -5.89171 | 36141 ft | 450 kts | 268° |
| 2026-05-05 15:03 | 52.55615 | -5.94252 | 35130 ft | 451 kts | 268° |
| 2026-05-05 15:03 | 52.55496 | -5.99437 | 35089 ft | 456 kts | 268° |
| 2026-05-05 15:03 | 52.55249 | -6.09937 | 35060 ft | 462 kts | 268° |
| 2026-05-05 15:04 | 52.54994 | -6.20524 | 35037 ft | 468 kts | 267° |
| 2026-05-05 15:04 | 52.54719 | -6.31372 | 35061 ft | 482 kts | 267° |
| 2026-05-05 15:05 | 52.54423 | -6.42571 | 35053 ft | 498 kts | 266° |
| 2026-05-05 15:05 | 52.54267 | -6.48302 | 35057 ft | 506 kts | 266° |
| 2026-05-05 15:06 | 52.53998 | -6.58007 | 35066 ft | 519 kts | 266° |
| 2026-05-05 15:06 | 52.53657 | -6.70008 | 35050 ft | 534 kts | 266° |
| 2026-05-05 15:07 | 52.53290 | -6.82397 | 35062 ft | 550 kts | 266° |
| 2026-05-05 15:07 | 52.52901 | -6.95120 | 35066 ft | 565 kts | 266° |
| 2026-05-05 15:08 | 52.52486 | -7.08196 | 35065 ft | 581 kts | 266° |
| 2026-05-05 15:08 | 52.52046 | -7.21590 | 35065 ft | 595 kts | 266° |
| 2026-05-05 15:09 | 52.51586 | -7.35164 | 35057 ft | 595 kts | 265° |
| 2026-05-05 15:09 | 52.51111 | -7.48716 | 35058 ft | 595 kts | 265° |
| 2026-05-05 15:10 | 52.50619 | -7.62282 | 35057 ft | 595 kts | 265° |
| 2026-05-05 15:10 | 52.50111 | -7.75843 | 35058 ft | 595 kts | 265° |
| 2026-05-05 15:11 | 52.49588 | -7.89382 | 35058 ft | 595 kts | 265° |
| 2026-05-05 15:11 | 52.49049 | -8.02932 | 35057 ft | 595 kts | 265° |
| 2026-05-05 15:12 | 52.48495 | -8.16483 | 35058 ft | 595 kts | 265° |
| 2026-05-05 15:12 | 52.47925 | -8.30023 | 35058 ft | 595 kts | 264° |
| 2026-05-05 15:13 | 52.47340 | -8.43561 | 35058 ft | 595 kts | 264° |
| 2026-05-05 15:13 | 52.46740 | -8.57091 | 35057 ft | 595 kts | 264° |
| 2026-05-05 15:14 | 52.46125 | -8.70606 | 35058 ft | 595 kts | 264° |
| 2026-05-05 15:14 | 52.45493 | -8.84133 | 35056 ft | 595 kts | 264° |
| 2026-05-05 15:15 | 52.44847 | -8.97652 | 35057 ft | 595 kts | 264° |
| 2026-05-05 15:15 | 52.44186 | -9.11160 | 35058 ft | 595 kts | 264° |
| 2026-05-05 15:16 | 52.43508 | -9.24682 | 35057 ft | 595 kts | 263° |
| 2026-05-05 15:16 | 52.42814 | -9.38196 | 35057 ft | 595 kts | 263° |
| 2026-05-05 15:17 | 52.42107 | -9.51695 | 35056 ft | 594 kts | 263° |
| 2026-05-05 15:17 | 52.41384 | -9.65175 | 35058 ft | 594 kts | 263° |
| 2026-05-05 15:18 | 52.40646 | -9.78652 | 35055 ft | 594 kts | 263° |
| 2026-05-05 15:18 | 52.39897 | -9.92042 | 35058 ft | 596 kts | 263° |
| 2026-05-05 15:19 | 52.39116 | -10.05703 | 35058 ft | 609 kts | 263° |
| 2026-05-05 15:19 | 52.38304 | -10.19624 | 35058 ft | 616 kts | 263° |
| 2026-05-05 15:20 | 52.37478 | -10.33555 | 35054 ft | 614 kts | 262° |
| 2026-05-05 15:20 | 52.36643 | -10.47339 | 35055 ft | 614 kts | 262° |
| 2026-05-05 15:21 | 52.35781 | -10.61281 | 35057 ft | 614 kts | 262° |
| 2026-05-05 15:21 | 52.34908 | -10.75131 | 35057 ft | 614 kts | 262° |
| 2026-05-05 15:22 | 52.34014 | -10.89051 | 35057 ft | 614 kts | 262° |
| 2026-05-05 15:22 | 52.33104 | -11.02954 | 35057 ft | 614 kts | 262° |
| 2026-05-05 15:23 | 52.32185 | -11.16750 | 35057 ft | 614 kts | 262° |
| 2026-05-05 15:23 | 52.31242 | -11.30651 | 35057 ft | 614 kts | 262° |
| 2026-05-05 15:24 | 52.30289 | -11.44457 | 35057 ft | 614 kts | 261° |
| 2026-05-05 15:24 | 52.29313 | -11.58353 | 35057 ft | 614 kts | 261° |
| 2026-05-05 15:25 | 52.28327 | -11.72159 | 35057 ft | 614 kts | 261° |
| 2026-05-05 15:25 | 52.27320 | -11.86022 | 35057 ft | 614 kts | 261° |
| 2026-05-05 15:26 | 52.26303 | -11.99803 | 35057 ft | 614 kts | 261° |
| 2026-05-05 15:26 | 52.25264 | -12.13648 | 35057 ft | 614 kts | 261° |
| 2026-05-05 15:27 | 52.24208 | -12.27495 | 35057 ft | 614 kts | 261° |
| 2026-05-05 15:27 | 52.23145 | -12.41231 | 35057 ft | 613 kts | 260° |
| 2026-05-05 15:28 | 52.22056 | -12.55069 | 35057 ft | 613 kts | 260° |
| 2026-05-05 15:28 | 52.20961 | -12.68786 | 35057 ft | 613 kts | 260° |
| 2026-05-05 15:29 | 52.19842 | -12.82590 | 35057 ft | 613 kts | 260° |
| 2026-05-05 15:29 | 52.18706 | -12.96400 | 35057 ft | 613 kts | 260° |
| 2026-05-05 15:30 | 52.17555 | -13.10193 | 35058 ft | 613 kts | 259° |
| 2026-05-05 15:30 | 52.16396 | -13.23887 | 35057 ft | 613 kts | 259° |
| 2026-05-05 15:31 | 52.15213 | -13.37657 | 35057 ft | 613 kts | 259° |
| 2026-05-05 15:31 | 52.14012 | -13.51444 | 35057 ft | 613 kts | 259° |
| 2026-05-05 15:32 | 52.12805 | -13.65115 | 35057 ft | 613 kts | 259° |
| 2026-05-05 15:32 | 52.11575 | -13.78854 | 35057 ft | 613 kts | 259° |
| 2026-05-05 15:33 | 52.10335 | -13.92524 | 35057 ft | 613 kts | 259° |
| 2026-05-05 15:33 | 52.09078 | -14.06201 | 35057 ft | 613 kts | 258° |
| 2026-05-05 15:34 | 52.07801 | -14.19914 | 35057 ft | 613 kts | 258° |
| 2026-05-05 15:34 | 52.06505 | -14.33655 | 35057 ft | 613 kts | 258° |
| 2026-05-05 15:35 | 52.05206 | -14.47250 | 35057 ft | 613 kts | 258° |
| 2026-05-05 15:35 | 52.03880 | -14.60952 | 35057 ft | 613 kts | 258° |
| 2026-05-05 15:36 | 52.02539 | -14.74635 | 35058 ft | 613 kts | 258° |
| 2026-05-05 15:36 | 52.01182 | -14.88314 | 35055 ft | 613 kts | 258° |
| 2026-05-05 15:36 | 52.00682 | -14.95089 | 35051 ft | 614 kts | 269° |
| 2026-05-05 15:37 | 52.00972 | -15.02003 | 35054 ft | 610 kts | 284° |
| 2026-05-05 15:37 | 52.03280 | -15.15159 | 35058 ft | 604 kts | 294° |
| 2026-05-05 15:38 | 52.06131 | -15.27992 | 35056 ft | 602 kts | 297° |
| 2026-05-05 15:38 | 52.09063 | -15.40664 | 35055 ft | 603 kts | 297° |
| 2026-05-05 15:39 | 52.11962 | -15.53500 | 35057 ft | 603 kts | 296° |
| 2026-05-05 15:39 | 52.14802 | -15.66392 | 35058 ft | 604 kts | 296° |
| 2026-05-05 15:40 | 52.17596 | -15.79233 | 35058 ft | 604 kts | 295° |
| 2026-05-05 15:40 | 52.20382 | -15.92102 | 35055 ft | 604 kts | 295° |
| 2026-05-05 15:41 | 52.23170 | -16.05042 | 35058 ft | 604 kts | 295° |
| 2026-05-05 15:41 | 52.25950 | -16.18019 | 35056 ft | 604 kts | 295° |
| 2026-05-05 15:42 | 52.28701 | -16.30945 | 35058 ft | 604 kts | 295° |
| 2026-05-05 15:42 | 52.31451 | -16.43948 | 35057 ft | 604 kts | 295° |
| 2026-05-05 15:43 | 52.34170 | -16.56893 | 35055 ft | 604 kts | 295° |
| 2026-05-05 15:43 | 52.36889 | -16.69919 | 35058 ft | 605 kts | 295° |
| 2026-05-05 15:44 | 52.39583 | -16.82909 | 35055 ft | 605 kts | 295° |
| 2026-05-05 15:44 | 52.42277 | -16.95983 | 35056 ft | 605 kts | 294° |
| 2026-05-05 15:45 | 52.44957 | -17.09076 | 35055 ft | 605 kts | 294° |
| 2026-05-05 15:45 | 52.47608 | -17.22113 | 35057 ft | 605 kts | 294° |
| 2026-05-05 15:46 | 52.50263 | -17.35258 | 35058 ft | 605 kts | 294° |
| 2026-05-05 15:46 | 52.52900 | -17.48401 | 35056 ft | 605 kts | 294° |
| 2026-05-05 15:47 | 52.55505 | -17.61470 | 35058 ft | 605 kts | 294° |
| 2026-05-05 15:47 | 52.58114 | -17.74648 | 35056 ft | 605 kts | 294° |
| 2026-05-05 15:48 | 52.60710 | -17.87854 | 35058 ft | 606 kts | 293° |
| 2026-05-05 15:48 | 52.63274 | -18.00982 | 35056 ft | 606 kts | 293° |
| 2026-05-05 15:49 | 52.65839 | -18.14213 | 35058 ft | 606 kts | 293° |
| 2026-05-05 15:49 | 52.68392 | -18.27466 | 35058 ft | 606 kts | 293° |
| 2026-05-05 15:50 | 52.70917 | -18.40668 | 35055 ft | 606 kts | 293° |
| 2026-05-05 15:50 | 52.73443 | -18.53967 | 35058 ft | 606 kts | 292° |
| 2026-05-05 15:51 | 52.75952 | -18.67274 | 35056 ft | 606 kts | 292° |
| 2026-05-05 15:51 | 52.78434 | -18.80530 | 35058 ft | 606 kts | 292° |
| 2026-05-05 15:52 | 52.80919 | -18.93893 | 35056 ft | 606 kts | 292° |
| 2026-05-05 15:52 | 52.83367 | -19.07158 | 35056 ft | 607 kts | 292° |
| 2026-05-05 15:53 | 52.85817 | -19.20525 | 35056 ft | 607 kts | 292° |
| 2026-05-05 15:53 | 52.88255 | -19.33927 | 35058 ft | 607 kts | 292° |
| 2026-05-05 15:54 | 52.90266 | -19.45052 | 35055 ft | 607 kts | 292° |
| 2026-05-05 15:54 | 52.93066 | -19.60661 | 35058 ft | 607 kts | 291° |
| 2026-05-05 15:55 | 52.95073 | -19.71930 | 35055 ft | 607 kts | 291° |
| 2026-05-05 15:55 | 52.97435 | -19.85289 | 35056 ft | 607 kts | 291° |
| 2026-05-05 15:56 | 52.99713 | -19.98821 | 35050 ft | 611 kts | 283° |
| 2026-05-05 15:56 | 53.00562 | -20.12921 | 35058 ft | 614 kts | 276° |
| 2026-05-05 15:57 | 53.01171 | -20.26981 | 35057 ft | 615 kts | 275° |
| 2026-05-05 15:57 | 53.01698 | -20.41196 | 35057 ft | 615 kts | 274° |
| 2026-05-05 15:58 | 53.02214 | -20.55397 | 35057 ft | 615 kts | 275° |
| 2026-05-05 15:58 | 53.02728 | -20.69517 | 35057 ft | 615 kts | 274° |
| 2026-05-05 15:59 | 53.03234 | -20.83702 | 35057 ft | 615 kts | 274° |
| 2026-05-05 15:59 | 53.03725 | -20.97922 | 35057 ft | 615 kts | 274° |
| 2026-05-05 16:00 | 53.04193 | -21.12021 | 35057 ft | 615 kts | 274° |
| 2026-05-05 16:00 | 53.04648 | -21.26244 | 35057 ft | 615 kts | 274° |
| 2026-05-05 16:01 | 53.05083 | -21.40371 | 35057 ft | 615 kts | 274° |
| 2026-05-05 16:01 | 53.05503 | -21.54582 | 35057 ft | 615 kts | 274° |
| 2026-05-05 16:02 | 53.05907 | -21.68808 | 35057 ft | 615 kts | 273° |
| 2026-05-05 16:02 | 53.06294 | -21.83027 | 35057 ft | 615 kts | 273° |
| 2026-05-05 16:03 | 53.06662 | -21.97176 | 35057 ft | 615 kts | 273° |
| 2026-05-05 16:03 | 53.07015 | -22.11414 | 35057 ft | 615 kts | 273° |
| 2026-05-05 16:04 | 53.07349 | -22.25535 | 35057 ft | 615 kts | 273° |
| 2026-05-05 16:04 | 53.07667 | -22.39752 | 35057 ft | 615 kts | 272° |
| 2026-05-05 16:05 | 53.07971 | -22.54030 | 35055 ft | 615 kts | 272° |
| 2026-05-05 16:05 | 53.08254 | -22.68181 | 35057 ft | 615 kts | 272° |
| 2026-05-05 16:06 | 53.08522 | -22.82414 | 35057 ft | 615 kts | 272° |
| 2026-05-05 16:06 | 53.08773 | -22.96646 | 35057 ft | 615 kts | 272° |
| 2026-05-05 16:07 | 53.09008 | -23.10908 | 35057 ft | 615 kts | 272° |
| 2026-05-05 16:07 | 53.09224 | -23.25040 | 35057 ft | 615 kts | 272° |
| 2026-05-05 16:08 | 53.09424 | -23.39297 | 35057 ft | 615 kts | 271° |
| 2026-05-05 16:08 | 53.09608 | -23.53572 | 35057 ft | 615 kts | 271° |
| 2026-05-05 16:09 | 53.09774 | -23.67810 | 35057 ft | 615 kts | 271° |
| 2026-05-05 16:09 | 53.09923 | -23.81984 | 35057 ft | 615 kts | 271° |
| 2026-05-05 16:10 | 53.10055 | -23.96238 | 35057 ft | 615 kts | 271° |
| 2026-05-05 16:10 | 53.10170 | -24.10417 | 35057 ft | 615 kts | 271° |
| 2026-05-05 16:11 | 53.10268 | -24.24690 | 35057 ft | 615 kts | 271° |
| 2026-05-05 16:12 | 53.10414 | -24.53114 | 35057 ft | 615 kts | 270° |
| 2026-05-05 16:13 | 53.10501 | -24.88682 | 35057 ft | 615 kts | 270° |
| 2026-05-05 16:13 | 53.10505 | -25.02923 | 35057 ft | 615 kts | 270° |
| 2026-05-05 16:14 | 53.10464 | -25.31443 | 35057 ft | 615 kts | 270° |
| 2026-05-05 16:15 | 53.10356 | -25.59856 | 35057 ft | 615 kts | 269° |
| 2026-05-05 16:16 | 53.10179 | -25.88341 | 35057 ft | 615 kts | 269° |
| 2026-05-05 16:17 | 53.10002 | -26.09644 | 35057 ft | 615 kts | 269° |
| 2026-05-05 16:18 | 53.09786 | -26.31032 | 35057 ft | 615 kts | 269° |
| 2026-05-05 16:19 | 53.09533 | -26.52317 | 35057 ft | 615 kts | 268° |
| 2026-05-05 16:19 | 53.09241 | -26.73670 | 35057 ft | 615 kts | 268° |
| 2026-05-05 16:20 | 53.08794 | -27.02077 | 35057 ft | 615 kts | 268° |
| 2026-05-05 16:22 | 53.08139 | -27.37590 | 35057 ft | 615 kts | 267° |
| 2026-05-05 16:23 | 53.07537 | -27.66082 | 35055 ft | 615 kts | 267° |
| 2026-05-05 16:23 | 53.07043 | -27.87366 | 35057 ft | 615 kts | 267° |
| 2026-05-05 16:24 | 53.06693 | -28.01515 | 35057 ft | 615 kts | 266° |
| 2026-05-05 16:25 | 53.06134 | -28.22852 | 35057 ft | 615 kts | 266° |
| 2026-05-05 16:25 | 53.05539 | -28.44123 | 35057 ft | 615 kts | 266° |
| 2026-05-05 16:26 | 53.04684 | -28.72544 | 35057 ft | 615 kts | 266° |
| 2026-05-05 16:27 | 53.04233 | -28.86679 | 35057 ft | 615 kts | 266° |
| 2026-05-05 16:27 | 53.03763 | -29.00914 | 35057 ft | 615 kts | 265° |
| 2026-05-05 16:28 | 53.03276 | -29.15114 | 35057 ft | 615 kts | 265° |
| 2026-05-05 16:28 | 53.02775 | -29.29224 | 35057 ft | 615 kts | 265° |
| 2026-05-05 16:29 | 53.02254 | -29.43432 | 35057 ft | 615 kts | 265° |
| 2026-05-05 16:29 | 53.01720 | -29.57543 | 35055 ft | 615 kts | 265° |
| 2026-05-05 16:30 | 53.01167 | -29.71716 | 35057 ft | 615 kts | 265° |
| 2026-05-05 16:30 | 53.00596 | -29.85897 | 35057 ft | 615 kts | 265° |
| 2026-05-05 16:31 | 53.00121 | -29.99998 | 35052 ft | 615 kts | 273° |
| 2026-05-05 16:31 | 53.00572 | -30.14196 | 35058 ft | 614 kts | 274° |
| 2026-05-05 16:32 | 53.01129 | -30.28373 | 35057 ft | 615 kts | 275° |
| 2026-05-05 16:32 | 53.01707 | -30.42477 | 35055 ft | 615 kts | 275° |
| 2026-05-05 16:33 | 53.02261 | -30.56664 | 35057 ft | 615 kts | 275° |
| 2026-05-05 16:33 | 53.02785 | -30.70883 | 35057 ft | 615 kts | 274° |
| 2026-05-05 16:34 | 53.03283 | -30.85002 | 35057 ft | 615 kts | 274° |
| 2026-05-05 16:34 | 53.03767 | -30.99155 | 35057 ft | 615 kts | 274° |
| 2026-05-05 16:35 | 53.04237 | -31.13375 | 35057 ft | 615 kts | 274° |
| 2026-05-05 16:35 | 53.04686 | -31.27483 | 35057 ft | 615 kts | 274° |
| 2026-05-05 16:36 | 53.05123 | -31.41705 | 35057 ft | 615 kts | 274° |
| 2026-05-05 16:36 | 53.05542 | -31.55920 | 35057 ft | 615 kts | 274° |
| 2026-05-05 16:37 | 53.05941 | -31.70039 | 35057 ft | 615 kts | 273° |
| 2026-05-05 16:37 | 53.06327 | -31.84261 | 35057 ft | 615 kts | 273° |
| 2026-05-05 16:38 | 53.06695 | -31.98479 | 35057 ft | 615 kts | 273° |
| 2026-05-05 16:38 | 53.07046 | -32.12688 | 35057 ft | 615 kts | 273° |
| 2026-05-05 16:39 | 53.07378 | -32.26824 | 35057 ft | 615 kts | 273° |
| 2026-05-05 16:39 | 53.07696 | -32.41057 | 35057 ft | 615 kts | 272° |
| 2026-05-05 16:40 | 53.07947 | -32.52906 | 35057 ft | 615 kts | 272° |
| 2026-05-05 16:40 | 53.08278 | -32.69405 | 35057 ft | 615 kts | 272° |
| 2026-05-05 16:41 | 53.08501 | -32.81254 | 35057 ft | 615 kts | 272° |
| 2026-05-05 16:41 | 53.08754 | -32.95523 | 35057 ft | 615 kts | 272° |
| 2026-05-05 16:42 | 53.08988 | -33.09664 | 35057 ft | 615 kts | 272° |
| 2026-05-05 16:42 | 53.09207 | -33.23906 | 35057 ft | 615 kts | 272° |
| 2026-05-05 16:43 | 53.09409 | -33.38159 | 35057 ft | 615 kts | 271° |
| 2026-05-05 16:43 | 53.09592 | -33.52329 | 35057 ft | 615 kts | 271° |
| 2026-05-05 16:44 | 53.09761 | -33.66629 | 35057 ft | 615 kts | 271° |
| 2026-05-05 16:44 | 53.09911 | -33.80793 | 35057 ft | 615 kts | 271° |
| 2026-05-05 16:45 | 53.10045 | -33.95063 | 35057 ft | 615 kts | 271° |
| 2026-05-05 16:45 | 53.10162 | -34.09314 | 35057 ft | 615 kts | 271° |
| 2026-05-05 16:46 | 53.10261 | -34.23485 | 35057 ft | 615 kts | 271° |
| 2026-05-05 16:46 | 53.10343 | -34.37673 | 35057 ft | 615 kts | 270° |
| 2026-05-05 16:47 | 53.10409 | -34.51945 | 35057 ft | 615 kts | 270° |
| 2026-05-05 16:47 | 53.10458 | -34.66236 | 35057 ft | 616 kts | 270° |
| 2026-05-05 16:48 | 53.10490 | -34.80412 | 35057 ft | 615 kts | 270° |
| 2026-05-05 16:48 | 53.10505 | -34.94704 | 35057 ft | 615 kts | 270° |
| 2026-05-05 16:49 | 53.10503 | -35.08857 | 35057 ft | 615 kts | 270° |
| 2026-05-05 16:49 | 53.10483 | -35.23151 | 35057 ft | 615 kts | 270° |
| 2026-05-05 16:50 | 53.10447 | -35.37312 | 35057 ft | 615 kts | 269° |
| 2026-05-05 16:50 | 53.10394 | -35.51582 | 35057 ft | 615 kts | 269° |
| 2026-05-05 16:51 | 53.10324 | -35.65765 | 35057 ft | 615 kts | 269° |
| 2026-05-05 16:51 | 53.10237 | -35.80044 | 35057 ft | 615 kts | 269° |
| 2026-05-05 16:52 | 53.10134 | -35.94202 | 35057 ft | 615 kts | 269° |
| 2026-05-05 16:52 | 53.10013 | -36.08448 | 35057 ft | 615 kts | 269° |
| 2026-05-05 16:53 | 53.09875 | -36.22696 | 35057 ft | 615 kts | 269° |
| 2026-05-05 16:53 | 53.09720 | -36.36949 | 35057 ft | 615 kts | 268° |
| 2026-05-05 16:54 | 53.09548 | -36.51128 | 35057 ft | 615 kts | 268° |
| 2026-05-05 16:54 | 53.09361 | -36.65290 | 35057 ft | 615 kts | 268° |
| 2026-05-05 16:55 | 53.09155 | -36.79527 | 35057 ft | 615 kts | 268° |
| 2026-05-05 16:55 | 53.08932 | -36.93781 | 35057 ft | 615 kts | 268° |
| 2026-05-05 16:56 | 53.08691 | -37.08037 | 35057 ft | 615 kts | 268° |
| 2026-05-05 16:56 | 53.08436 | -37.22171 | 35057 ft | 615 kts | 268° |
| 2026-05-05 16:57 | 53.08163 | -37.36417 | 35057 ft | 615 kts | 267° |
| 2026-05-05 16:57 | 53.07871 | -37.50668 | 35057 ft | 615 kts | 267° |
| 2026-05-05 16:58 | 53.07565 | -37.64828 | 35057 ft | 615 kts | 267° |
| 2026-05-05 16:58 | 53.07240 | -37.79066 | 35057 ft | 615 kts | 267° |
| 2026-05-05 16:59 | 53.06901 | -37.93221 | 35057 ft | 615 kts | 267° |
| 2026-05-05 16:59 | 53.06542 | -38.07434 | 35057 ft | 615 kts | 266° |
| 2026-05-05 17:00 | 53.06166 | -38.21684 | 35057 ft | 615 kts | 266° |
| 2026-05-05 17:00 | 53.05776 | -38.35817 | 35057 ft | 615 kts | 266° |
| 2026-05-05 17:01 | 53.05367 | -38.50025 | 35057 ft | 615 kts | 266° |
| 2026-05-05 17:01 | 53.04941 | -38.64242 | 35057 ft | 615 kts | 266° |
| 2026-05-05 17:02 | 53.04501 | -38.78354 | 35057 ft | 615 kts | 266° |
| 2026-05-05 17:02 | 53.04040 | -38.92591 | 35057 ft | 615 kts | 266° |
| 2026-05-05 17:03 | 53.03563 | -39.06806 | 35057 ft | 615 kts | 265° |
| 2026-05-05 17:03 | 53.03072 | -39.20926 | 35057 ft | 615 kts | 265° |
| 2026-05-05 17:04 | 53.02561 | -39.35141 | 35057 ft | 615 kts | 265° |
| 2026-05-05 17:04 | 53.02037 | -39.49247 | 35055 ft | 615 kts | 265° |
| 2026-05-05 17:05 | 53.01492 | -39.63442 | 35057 ft | 615 kts | 265° |
| 2026-05-05 17:05 | 53.00935 | -39.77523 | 35057 ft | 615 kts | 265° |
| 2026-05-05 17:06 | 53.00357 | -39.91720 | 35057 ft | 615 kts | 265° |
| 2026-05-05 17:06 | 52.99725 | -40.05901 | 35057 ft | 614 kts | 263° |
| 2026-05-05 17:07 | 52.98926 | -40.19958 | 35057 ft | 614 kts | 262° |
| 2026-05-05 17:07 | 52.98064 | -40.34068 | 35057 ft | 614 kts | 262° |
| 2026-05-05 17:08 | 52.97202 | -40.48175 | 35057 ft | 614 kts | 262° |
| 2026-05-05 17:08 | 52.96345 | -40.62210 | 35057 ft | 614 kts | 262° |
| 2026-05-05 17:09 | 52.95471 | -40.76318 | 35057 ft | 614 kts | 262° |
| 2026-05-05 17:09 | 52.94581 | -40.90414 | 35057 ft | 614 kts | 262° |
| 2026-05-05 17:10 | 52.93676 | -41.04443 | 35058 ft | 614 kts | 262° |
| 2026-05-05 17:10 | 52.92748 | -41.18542 | 35057 ft | 614 kts | 262° |
| 2026-05-05 17:11 | 52.91806 | -41.32621 | 35057 ft | 614 kts | 261° |
| 2026-05-05 17:11 | 52.90853 | -41.46598 | 35057 ft | 614 kts | 261° |
| 2026-05-05 17:12 | 52.89877 | -41.60672 | 35057 ft | 614 kts | 261° |
| 2026-05-05 17:12 | 52.88883 | -41.74750 | 35057 ft | 614 kts | 261° |
| 2026-05-05 17:13 | 52.87880 | -41.88722 | 35057 ft | 614 kts | 261° |
| 2026-05-05 17:13 | 52.86855 | -42.02755 | 35057 ft | 614 kts | 261° |
| 2026-05-05 17:14 | 52.85813 | -42.16794 | 35057 ft | 614 kts | 261° |
| 2026-05-05 17:14 | 52.84761 | -42.30744 | 35057 ft | 614 kts | 261° |
| 2026-05-05 17:15 | 52.83685 | -42.44777 | 35057 ft | 613 kts | 260° |
| 2026-05-05 17:15 | 52.82595 | -42.58786 | 35057 ft | 613 kts | 260° |
| 2026-05-05 17:16 | 52.81488 | -42.72787 | 35057 ft | 613 kts | 260° |
| 2026-05-05 17:16 | 52.80369 | -42.86720 | 35057 ft | 613 kts | 260° |
| 2026-05-05 17:17 | 52.79230 | -43.00696 | 35056 ft | 613 kts | 259° |
| 2026-05-05 17:17 | 52.78079 | -43.14603 | 35054 ft | 613 kts | 259° |
| 2026-05-05 17:18 | 52.76904 | -43.28605 | 35057 ft | 613 kts | 259° |
| 2026-05-05 17:18 | 52.75722 | -43.42481 | 35057 ft | 613 kts | 259° |
| 2026-05-05 17:19 | 52.74516 | -43.56447 | 35057 ft | 613 kts | 259° |
| 2026-05-05 17:19 | 52.73294 | -43.70394 | 35057 ft | 613 kts | 259° |
| 2026-05-05 17:20 | 52.72064 | -43.84245 | 35057 ft | 613 kts | 259° |
| 2026-05-05 17:20 | 52.70810 | -43.98179 | 35057 ft | 613 kts | 259° |
| 2026-05-05 17:21 | 52.69539 | -44.12097 | 35054 ft | 613 kts | 258° |
| 2026-05-05 17:22 | 52.67611 | -44.32882 | 35057 ft | 613 kts | 258° |
| 2026-05-05 17:22 | 52.66301 | -44.46772 | 35055 ft | 613 kts | 258° |
| 2026-05-05 17:23 | 52.64984 | -44.60557 | 35057 ft | 613 kts | 258° |
| 2026-05-05 17:23 | 52.63641 | -44.74435 | 35057 ft | 613 kts | 258° |
| 2026-05-05 17:24 | 52.62292 | -44.88205 | 35057 ft | 613 kts | 258° |
| 2026-05-05 17:24 | 52.60918 | -45.02050 | 35058 ft | 612 kts | 257° |
| 2026-05-05 17:25 | 52.59529 | -45.15885 | 35057 ft | 612 kts | 257° |
| 2026-05-05 17:25 | 52.58129 | -45.29655 | 35057 ft | 612 kts | 257° |
| 2026-05-05 17:26 | 52.56707 | -45.43469 | 35058 ft | 612 kts | 257° |
| 2026-05-05 17:26 | 52.55269 | -45.57279 | 35058 ft | 612 kts | 257° |
| 2026-05-05 17:27 | 52.53824 | -45.70996 | 35058 ft | 612 kts | 257° |
| 2026-05-05 17:27 | 52.52353 | -45.84802 | 35058 ft | 612 kts | 257° |
| 2026-05-05 17:28 | 52.50866 | -45.98593 | 35057 ft | 612 kts | 257° |
| 2026-05-05 17:28 | 52.49374 | -46.12273 | 35058 ft | 612 kts | 256° |
| 2026-05-05 17:29 | 52.47856 | -46.26044 | 35056 ft | 612 kts | 256° |
| 2026-05-05 17:29 | 52.46331 | -46.39713 | 35055 ft | 612 kts | 256° |
| 2026-05-05 17:30 | 52.44780 | -46.53470 | 35058 ft | 612 kts | 256° |
| 2026-05-05 17:30 | 52.43217 | -46.67183 | 35058 ft | 612 kts | 256° |
| 2026-05-05 17:31 | 52.41908 | -46.78559 | 35058 ft | 612 kts | 256° |
| 2026-05-05 17:31 | 52.40056 | -46.94475 | 35054 ft | 612 kts | 256° |
| 2026-05-05 17:32 | 52.38717 | -47.05858 | 35058 ft | 612 kts | 255° |
| 2026-05-05 17:32 | 52.37093 | -47.19537 | 35058 ft | 611 kts | 255° |
| 2026-05-05 17:33 | 52.35454 | -47.33202 | 35058 ft | 611 kts | 255° |
| 2026-05-05 17:33 | 52.33796 | -47.46881 | 35058 ft | 611 kts | 255° |
| 2026-05-05 17:34 | 52.32133 | -47.60461 | 35056 ft | 611 kts | 255° |
| 2026-05-05 17:34 | 52.30445 | -47.74105 | 35058 ft | 611 kts | 255° |
| 2026-05-05 17:35 | 52.28756 | -47.87625 | 35058 ft | 611 kts | 255° |
| 2026-05-05 17:35 | 52.27038 | -48.01245 | 35058 ft | 611 kts | 255° |
| 2026-05-05 17:36 | 52.25313 | -48.14779 | 35058 ft | 611 kts | 254° |
| 2026-05-05 17:36 | 52.23564 | -48.28375 | 35058 ft | 611 kts | 254° |
| 2026-05-05 17:37 | 52.21809 | -48.41880 | 35058 ft | 611 kts | 254° |
| 2026-05-05 17:37 | 52.20027 | -48.55471 | 35058 ft | 611 kts | 254° |
| 2026-05-05 17:38 | 52.18243 | -48.68940 | 35055 ft | 611 kts | 254° |
| 2026-05-05 17:38 | 52.16434 | -48.82476 | 35058 ft | 611 kts | 253° |
| 2026-05-05 17:39 | 52.14610 | -48.95992 | 35058 ft | 610 kts | 253° |
| 2026-05-05 17:39 | 52.12780 | -49.09433 | 35058 ft | 610 kts | 253° |
| 2026-05-05 17:40 | 52.10920 | -49.22969 | 35058 ft | 610 kts | 253° |
| 2026-05-05 17:40 | 52.09062 | -49.36363 | 35058 ft | 610 kts | 253° |
| 2026-05-05 17:41 | 52.07176 | -49.49843 | 35058 ft | 610 kts | 253° |
| 2026-05-05 17:41 | 52.05277 | -49.63295 | 35058 ft | 610 kts | 253° |
| 2026-05-05 17:42 | 52.03373 | -49.76659 | 35058 ft | 610 kts | 252° |
| 2026-05-05 17:42 | 52.01441 | -49.90106 | 35056 ft | 610 kts | 252° |
| 2026-05-05 17:43 | 51.99134 | -50.03300 | 35058 ft | 601 kts | 243° |
| 2026-05-05 17:43 | 51.96612 | -50.14193 | 35066 ft | 603 kts | 242° |
| 2026-05-05 17:43 | 51.95099 | -50.20520 | 35298 ft | 603 kts | 242° |
| 2026-05-05 17:44 | 51.93567 | -50.26847 | 35614 ft | 601 kts | 242° |
| 2026-05-05 17:44 | 51.92034 | -50.33127 | 35896 ft | 600 kts | 242° |
| 2026-05-05 17:44 | 51.90510 | -50.39351 | 36156 ft | 599 kts | 241° |
| 2026-05-05 17:44 | 51.88971 | -50.45626 | 36398 ft | 599 kts | 241° |
| 2026-05-05 17:45 | 51.87433 | -50.51884 | 36634 ft | 599 kts | 241° |
| 2026-05-05 17:45 | 51.85891 | -50.58153 | 36855 ft | 599 kts | 241° |
| 2026-05-05 17:45 | 51.84350 | -50.64408 | 37068 ft | 599 kts | 241° |
| 2026-05-05 17:45 | 51.82806 | -50.70660 | 37273 ft | 599 kts | 241° |
| 2026-05-05 17:46 | 51.81260 | -50.76902 | 37472 ft | 599 kts | 241° |
| 2026-05-05 17:46 | 51.79711 | -50.83141 | 37666 ft | 598 kts | 241° |
| 2026-05-05 17:46 | 51.78155 | -50.89388 | 37852 ft | 598 kts | 241° |
| 2026-05-05 17:46 | 51.76600 | -50.95614 | 38036 ft | 598 kts | 241° |
| 2026-05-05 17:47 | 51.75040 | -51.01842 | 38064 ft | 598 kts | 241° |
| 2026-05-05 17:47 | 51.71913 | -51.14275 | 38057 ft | 598 kts | 241° |
| 2026-05-05 17:48 | 51.68773 | -51.26689 | 38057 ft | 598 kts | 240° |
| 2026-05-05 17:48 | 51.65619 | -51.39088 | 38057 ft | 598 kts | 240° |
| 2026-05-05 17:49 | 51.62453 | -51.51465 | 38057 ft | 598 kts | 240° |
| 2026-05-05 17:49 | 51.59276 | -51.63822 | 38057 ft | 598 kts | 240° |
| 2026-05-05 17:50 | 51.56086 | -51.76159 | 38057 ft | 598 kts | 240° |
| 2026-05-05 17:50 | 51.52906 | -51.88391 | 38057 ft | 597 kts | 240° |
| 2026-05-05 17:51 | 51.49691 | -52.00690 | 38057 ft | 597 kts | 240° |
| 2026-05-05 17:51 | 51.46463 | -52.12971 | 38057 ft | 597 kts | 240° |
| 2026-05-05 17:52 | 51.43224 | -52.25229 | 38057 ft | 597 kts | 239° |
| 2026-05-05 17:52 | 51.39974 | -52.37466 | 38057 ft | 597 kts | 239° |
| 2026-05-05 17:53 | 51.36714 | -52.49672 | 38057 ft | 597 kts | 239° |
| 2026-05-05 17:53 | 51.33439 | -52.61871 | 38057 ft | 597 kts | 239° |
| 2026-05-05 17:54 | 51.30149 | -52.74058 | 38057 ft | 596 kts | 239° |
| 2026-05-05 17:54 | 51.26850 | -52.86216 | 38057 ft | 596 kts | 239° |
| 2026-05-05 17:55 | 51.23539 | -52.98356 | 38057 ft | 596 kts | 239° |
| 2026-05-05 17:55 | 51.20217 | -53.10473 | 38057 ft | 596 kts | 239° |
| 2026-05-05 17:56 | 51.16886 | -53.22564 | 38057 ft | 596 kts | 239° |
| 2026-05-05 17:56 | 51.13655 | -53.34747 | 38057 ft | 598 kts | 240° |
| 2026-05-05 17:57 | 51.10502 | -53.47008 | 38057 ft | 598 kts | 240° |
| 2026-05-05 17:57 | 51.07341 | -53.59237 | 38057 ft | 598 kts | 240° |
| 2026-05-05 17:58 | 51.04415 | -53.70468 | 40676 ft | 424 kts | 248° |
| 2026-05-05 17:58 | 51.03305 | -53.74775 | 42360 ft | 421 kts | 248° |
| 2026-05-05 17:58 | 51.02180 | -53.79153 | 41645 ft | 440 kts | 248° |
| 2026-05-05 17:58 | 51.00993 | -53.83709 | 40615 ft | 450 kts | 247° |
| 2026-05-05 17:59 | 50.99790 | -53.88175 | 40697 ft | 448 kts | 247° |
| 2026-05-05 17:59 | 50.98558 | -53.92720 | 39985 ft | 449 kts | 247° |
| 2026-05-05 17:59 | 50.97327 | -53.97267 | 39328 ft | 448 kts | 247° |
| 2026-05-05 17:59 | 50.96102 | -54.01809 | 38915 ft | 451 kts | 247° |
| 2026-05-05 18:00 | 50.94861 | -54.06430 | 38752 ft | 458 kts | 247° |
| 2026-05-05 18:00 | 50.92395 | -54.15623 | 38714 ft | 449 kts | 247° |
| 2026-05-05 18:01 | 50.89988 | -54.24585 | 37804 ft | 448 kts | 247° |
| 2026-05-05 18:01 | 50.87520 | -54.33740 | 37756 ft | 458 kts | 246° |
| 2026-05-05 18:01 | 50.86283 | -54.38311 | 38476 ft | 406 kts | 242° |
| 2026-05-05 18:02 | 50.85211 | -54.42173 | 40404 ft | 382 kts | 241° |
| 2026-05-05 18:02 | 50.84068 | -54.46117 | 39473 ft | 406 kts | 238° |
| 2026-05-05 18:02 | 50.82881 | -54.50362 | 38147 ft | 436 kts | 245° |
| 2026-05-05 18:02 | 50.81746 | -54.54732 | 37946 ft | 431 kts | 244° |
| 2026-05-05 18:03 | 50.80660 | -54.59250 | 37254 ft | 455 kts | 245° |
| 2026-05-05 18:03 | 50.79405 | -54.64057 | 36327 ft | 486 kts | 243° |
| 2026-05-05 18:03 | 50.78024 | -54.69012 | 36091 ft | 497 kts | 241° |
| 2026-05-05 18:03 | 50.76597 | -54.74052 | 35932 ft | 508 kts | 240° |
| 2026-05-05 18:04 | 50.75142 | -54.79185 | 35870 ft | 516 kts | 240° |
| 2026-05-05 18:04 | 50.72211 | -54.89644 | 35850 ft | 530 kts | 238° |
| 2026-05-05 18:04 | 50.70706 | -54.95039 | 35645 ft | 542 kts | 238° |
| 2026-05-05 18:05 | 50.69181 | -55.00507 | 35659 ft | 548 kts | 238° |
| 2026-05-05 18:05 | 50.66090 | -55.11600 | 35818 ft | 557 kts | 238° |
| 2026-05-05 18:05 | 50.64526 | -55.17202 | 35972 ft | 559 kts | 238° |
| 2026-05-05 18:06 | 50.63008 | -55.22635 | 36208 ft | 558 kts | 238° |
| 2026-05-05 18:06 | 50.61973 | -55.26332 | 36376 ft | 557 kts | 238° |
| 2026-05-05 18:06 | 50.59863 | -55.33827 | 36438 ft | 564 kts | 240° |
| 2026-05-05 18:06 | 50.58268 | -55.39466 | 36653 ft | 563 kts | 241° |
| 2026-05-05 18:07 | 50.56682 | -55.45067 | 37015 ft | 559 kts | 241° |
| 2026-05-05 18:07 | 50.55107 | -55.50629 | 37348 ft | 555 kts | 241° |
| 2026-05-05 18:07 | 50.53536 | -55.56161 | 37585 ft | 553 kts | 241° |
| 2026-05-05 18:07 | 50.51985 | -55.61604 | 37737 ft | 554 kts | 241° |
| 2026-05-05 18:08 | 50.50399 | -55.67147 | 37749 ft | 558 kts | 241° |
| 2026-05-05 18:08 | 50.47183 | -55.78334 | 37755 ft | 567 kts | 241° |
| 2026-05-05 18:09 | 50.43905 | -55.89696 | 37753 ft | 576 kts | 241° |
| 2026-05-05 18:09 | 50.40568 | -56.01216 | 37753 ft | 585 kts | 241° |
| 2026-05-05 18:10 | 50.37165 | -56.12912 | 37754 ft | 594 kts | 241° |
| 2026-05-05 18:10 | 50.33700 | -56.24759 | 37753 ft | 603 kts | 241° |
| 2026-05-05 18:11 | 50.30179 | -56.36745 | 37750 ft | 607 kts | 241° |
| 2026-05-05 18:11 | 50.26647 | -56.48719 | 37752 ft | 606 kts | 241° |
| 2026-05-05 18:12 | 50.23104 | -56.60670 | 37752 ft | 606 kts | 240° |
| 2026-05-05 18:12 | 50.19539 | -56.72615 | 37752 ft | 608 kts | 240° |
| 2026-05-05 18:13 | 50.15954 | -56.84562 | 37753 ft | 608 kts | 240° |
| 2026-05-05 18:13 | 50.12358 | -56.96498 | 37752 ft | 608 kts | 240° |
| 2026-05-05 18:14 | 50.08749 | -57.08419 | 37749 ft | 608 kts | 240° |
| 2026-05-05 18:14 | 50.05127 | -57.20322 | 37753 ft | 609 kts | 240° |
| 2026-05-05 18:15 | 50.01487 | -57.32228 | 37752 ft | 609 kts | 240° |
| 2026-05-05 18:15 | 49.97835 | -57.44115 | 37749 ft | 610 kts | 240° |
| 2026-05-05 18:16 | 49.94175 | -57.55983 | 37776 ft | 608 kts | 239° |
| 2026-05-05 18:16 | 49.90535 | -57.67796 | 37741 ft | 606 kts | 239° |
| 2026-05-05 18:17 | 49.86860 | -57.79555 | 37749 ft | 605 kts | 239° |
| 2026-05-05 18:17 | 49.83175 | -57.91275 | 37751 ft | 605 kts | 239° |
| 2026-05-05 18:18 | 49.79509 | -58.02911 | 37750 ft | 605 kts | 239° |
| 2026-05-05 18:18 | 49.75813 | -58.14603 | 37751 ft | 605 kts | 239° |
| 2026-05-05 18:19 | 49.72106 | -58.26277 | 37748 ft | 605 kts | 239° |
| 2026-05-05 18:19 | 49.68388 | -58.37931 | 37751 ft | 605 kts | 239° |
| 2026-05-05 18:20 | 49.64656 | -58.49569 | 37753 ft | 605 kts | 239° |
| 2026-05-05 18:20 | 49.60914 | -58.61188 | 37750 ft | 605 kts | 238° |
| 2026-05-05 18:21 | 49.57164 | -58.72776 | 37749 ft | 604 kts | 238° |
| 2026-05-05 18:21 | 49.54037 | -58.82397 | 37748 ft | 604 kts | 238° |
| 2026-05-05 18:22 | 49.50263 | -58.93961 | 37748 ft | 604 kts | 238° |
| 2026-05-05 18:22 | 49.46479 | -59.05505 | 37748 ft | 604 kts | 238° |
| 2026-05-05 18:23 | 49.42683 | -59.17029 | 37750 ft | 604 kts | 238° |
| 2026-05-05 18:23 | 49.38878 | -59.28532 | 37748 ft | 604 kts | 238° |
| 2026-05-05 18:24 | 49.35063 | -59.40010 | 37748 ft | 604 kts | 238° |
| 2026-05-05 18:24 | 49.31235 | -59.51474 | 37755 ft | 604 kts | 238° |
| 2026-05-05 18:25 | 49.27395 | -59.62923 | 37752 ft | 604 kts | 237° |
| 2026-05-05 18:25 | 49.23547 | -59.74348 | 37750 ft | 604 kts | 237° |
| 2026-05-05 18:26 | 49.19687 | -59.85755 | 37748 ft | 604 kts | 237° |
| 2026-05-05 18:26 | 49.15818 | -59.97135 | 37750 ft | 604 kts | 237° |
| 2026-05-05 18:27 | 49.11936 | -60.08506 | 37748 ft | 604 kts | 237° |
| 2026-05-05 18:27 | 49.08042 | -60.19861 | 37751 ft | 603 kts | 237° |
| 2026-05-05 18:28 | 49.02213 | -60.36766 | 37750 ft | 603 kts | 237° |
| 2026-05-05 18:28 | 48.98294 | -60.48068 | 37750 ft | 603 kts | 237° |
| 2026-05-05 18:29 | 48.94366 | -60.59347 | 37750 ft | 603 kts | 237° |
| 2026-05-05 18:29 | 48.90428 | -60.70605 | 37751 ft | 603 kts | 236° |
| 2026-05-05 18:30 | 48.86478 | -60.81847 | 37751 ft | 603 kts | 236° |
| 2026-05-05 18:30 | 48.82519 | -60.93069 | 37750 ft | 603 kts | 236° |
| 2026-05-05 18:31 | 48.78547 | -61.04278 | 37751 ft | 603 kts | 236° |
| 2026-05-05 18:31 | 48.74567 | -61.15461 | 37751 ft | 603 kts | 236° |
| 2026-05-05 18:32 | 48.70576 | -61.26627 | 37749 ft | 603 kts | 236° |
| 2026-05-05 18:32 | 48.66577 | -61.37768 | 37750 ft | 603 kts | 236° |
| 2026-05-05 18:33 | 48.62565 | -61.48896 | 37750 ft | 603 kts | 236° |
| 2026-05-05 18:33 | 48.58542 | -61.60007 | 37748 ft | 602 kts | 236° |
| 2026-05-05 18:34 | 48.54514 | -61.71087 | 37753 ft | 602 kts | 236° |
| 2026-05-05 18:34 | 48.50471 | -61.82161 | 37752 ft | 602 kts | 235° |
| 2026-05-05 18:35 | 48.46420 | -61.93208 | 37752 ft | 602 kts | 235° |
| 2026-05-05 18:35 | 48.42359 | -62.04239 | 37748 ft | 602 kts | 235° |
| 2026-05-05 18:36 | 48.38286 | -62.15253 | 37750 ft | 602 kts | 235° |
| 2026-05-05 18:36 | 48.34208 | -62.26238 | 37751 ft | 602 kts | 235° |
| 2026-05-05 18:37 | 48.30116 | -62.37213 | 37748 ft | 602 kts | 235° |
| 2026-05-05 18:37 | 48.26016 | -62.48163 | 37749 ft | 602 kts | 234° |
| 2026-05-05 18:38 | 48.21904 | -62.59103 | 37750 ft | 602 kts | 234° |
| 2026-05-05 18:38 | 48.17783 | -62.70019 | 37750 ft | 602 kts | 234° |
| 2026-05-05 18:39 | 48.13683 | -62.80836 | 37751 ft | 601 kts | 234° |
| 2026-05-05 18:39 | 48.09544 | -62.91710 | 37749 ft | 601 kts | 234° |
| 2026-05-05 18:40 | 48.05394 | -63.02571 | 37751 ft | 601 kts | 234° |
| 2026-05-05 18:40 | 48.01236 | -63.13407 | 37748 ft | 601 kts | 234° |
| 2026-05-05 18:41 | 47.97067 | -63.24227 | 37750 ft | 601 kts | 234° |
| 2026-05-05 18:41 | 47.92889 | -63.35027 | 37750 ft | 601 kts | 234° |
| 2026-05-05 18:42 | 47.88701 | -63.45811 | 37750 ft | 601 kts | 234° |
| 2026-05-05 18:42 | 47.84503 | -63.56577 | 37752 ft | 601 kts | 233° |
| 2026-05-05 18:43 | 47.80298 | -63.67315 | 37753 ft | 601 kts | 233° |
| 2026-05-05 18:43 | 47.76078 | -63.78052 | 37750 ft | 601 kts | 233° |
| 2026-05-05 18:44 | 47.71852 | -63.88758 | 37748 ft | 601 kts | 233° |
| 2026-05-05 18:44 | 47.67619 | -63.99441 | 37750 ft | 601 kts | 233° |
| 2026-05-05 18:45 | 47.63377 | -64.10105 | 37751 ft | 600 kts | 233° |
| 2026-05-05 18:45 | 47.59124 | -64.20754 | 37748 ft | 600 kts | 233° |
| 2026-05-05 18:46 | 47.54862 | -64.31385 | 37749 ft | 600 kts | 233° |
| 2026-05-05 18:46 | 47.50591 | -64.41994 | 37750 ft | 600 kts | 233° |
| 2026-05-05 18:47 | 47.46337 | -64.52521 | 37748 ft | 600 kts | 233° |
| 2026-05-05 18:47 | 47.42020 | -64.63163 | 37748 ft | 600 kts | 232° |
| 2026-05-05 18:48 | 47.37720 | -64.73720 | 37749 ft | 600 kts | 232° |
| 2026-05-05 18:48 | 47.33443 | -64.84181 | 37748 ft | 600 kts | 232° |
| 2026-05-05 18:49 | 47.29125 | -64.94702 | 37749 ft | 600 kts | 232° |
| 2026-05-05 18:49 | 47.24800 | -65.05198 | 37748 ft | 600 kts | 232° |
| 2026-05-05 18:50 | 47.20467 | -65.15674 | 37748 ft | 600 kts | 232° |
| 2026-05-05 18:50 | 47.16123 | -65.26136 | 37751 ft | 599 kts | 232° |
| 2026-05-05 18:51 | 47.11770 | -65.36582 | 37747 ft | 599 kts | 232° |
| 2026-05-05 18:51 | 47.07408 | -65.47008 | 37748 ft | 600 kts | 232° |
| 2026-05-05 18:52 | 47.03032 | -65.57426 | 37748 ft | 600 kts | 232° |
| 2026-05-05 18:52 | 46.98650 | -65.67822 | 37753 ft | 599 kts | 232° |
| 2026-05-05 18:53 | 46.94262 | -65.78191 | 37753 ft | 599 kts | 231° |
| 2026-05-05 18:53 | 46.89866 | -65.88540 | 37749 ft | 599 kts | 231° |
| 2026-05-05 18:54 | 46.85459 | -65.98877 | 37750 ft | 599 kts | 231° |
| 2026-05-05 18:54 | 46.81042 | -66.09197 | 37751 ft | 599 kts | 231° |
| 2026-05-05 18:55 | 46.76613 | -66.19507 | 37751 ft | 599 kts | 231° |
| 2026-05-05 18:55 | 46.72181 | -66.29787 | 37751 ft | 599 kts | 231° |
| 2026-05-05 18:56 | 46.67731 | -66.40069 | 37750 ft | 600 kts | 231° |
| 2026-05-05 18:56 | 46.63274 | -66.50328 | 37749 ft | 600 kts | 231° |
| 2026-05-05 18:57 | 46.58806 | -66.60577 | 37749 ft | 600 kts | 231° |
| 2026-05-05 18:57 | 46.54328 | -66.70809 | 37748 ft | 600 kts | 231° |
| 2026-05-05 18:58 | 46.49835 | -66.81040 | 37749 ft | 601 kts | 231° |
| 2026-05-05 18:58 | 46.45335 | -66.91250 | 37749 ft | 600 kts | 230° |
| 2026-05-05 18:59 | 46.40829 | -67.01433 | 37752 ft | 600 kts | 230° |
| 2026-05-05 18:59 | 46.36343 | -67.11534 | 37749 ft | 600 kts | 230° |
| 2026-05-05 19:00 | 46.31788 | -67.21754 | 37750 ft | 600 kts | 230° |
| 2026-05-05 19:00 | 46.27287 | -67.31817 | 37747 ft | 599 kts | 230° |
| 2026-05-05 19:01 | 46.22757 | -67.41909 | 37750 ft | 599 kts | 230° |
| 2026-05-05 19:01 | 46.18211 | -67.51996 | 37750 ft | 599 kts | 230° |
| 2026-05-05 19:02 | 46.13663 | -67.62056 | 37754 ft | 598 kts | 230° |
| 2026-05-05 19:02 | 46.09110 | -67.72087 | 37751 ft | 598 kts | 230° |
| 2026-05-05 19:03 | 46.04544 | -67.82111 | 37750 ft | 598 kts | 229° |
| 2026-05-05 19:03 | 45.99733 | -67.91809 | 37752 ft | 593 kts | 224° |
| 2026-05-05 19:04 | 45.94688 | -68.01175 | 37750 ft | 592 kts | 224° |
| 2026-05-05 19:04 | 45.89630 | -68.10505 | 37752 ft | 592 kts | 224° |
| 2026-05-05 19:05 | 45.84604 | -68.19872 | 37751 ft | 592 kts | 224° |
| 2026-05-05 19:05 | 45.79594 | -68.29246 | 37751 ft | 593 kts | 224° |
| 2026-05-05 19:06 | 45.74578 | -68.38611 | 37748 ft | 592 kts | 224° |
| 2026-05-05 19:06 | 45.69553 | -68.47954 | 37749 ft | 592 kts | 224° |
| 2026-05-05 19:07 | 45.65372 | -68.55701 | 37751 ft | 592 kts | 224° |
| 2026-05-05 19:07 | 45.59485 | -68.66570 | 37752 ft | 592 kts | 224° |
| 2026-05-05 19:08 | 45.55294 | -68.74282 | 37751 ft | 592 kts | 224° |
| 2026-05-05 19:08 | 45.49424 | -68.85051 | 37749 ft | 592 kts | 224° |
| 2026-05-05 19:09 | 45.44363 | -68.94301 | 37753 ft | 592 kts | 224° |
| 2026-05-05 19:09 | 45.39298 | -69.03528 | 37748 ft | 592 kts | 224° |
| 2026-05-05 19:10 | 45.35048 | -69.11247 | 37748 ft | 591 kts | 223° |
| 2026-05-05 19:10 | 45.29968 | -69.20448 | 37754 ft | 592 kts | 223° |
| 2026-05-05 19:11 | 45.24881 | -69.29630 | 37751 ft | 591 kts | 223° |
| 2026-05-05 19:11 | 45.19787 | -69.38796 | 37752 ft | 592 kts | 223° |
| 2026-05-05 19:12 | 45.14724 | -69.47878 | 37750 ft | 591 kts | 223° |
| 2026-05-05 19:12 | 45.09619 | -69.57003 | 37749 ft | 591 kts | 223° |
| 2026-05-05 19:13 | 45.04504 | -69.66118 | 37754 ft | 592 kts | 223° |
| 2026-05-05 19:13 | 44.99380 | -69.75220 | 37747 ft | 592 kts | 223° |
| 2026-05-05 19:14 | 44.94253 | -69.84300 | 37749 ft | 591 kts | 223° |
| 2026-05-05 19:14 | 44.89121 | -69.93359 | 37753 ft | 591 kts | 223° |
| 2026-05-05 19:15 | 44.83986 | -70.02393 | 37748 ft | 590 kts | 223° |
| 2026-05-05 19:15 | 44.78840 | -70.11417 | 37744 ft | 592 kts | 223° |
| 2026-05-05 19:16 | 44.73678 | -70.20449 | 37751 ft | 592 kts | 223° |
| 2026-05-05 19:16 | 44.68511 | -70.29454 | 37750 ft | 591 kts | 222° |
| 2026-05-05 19:17 | 44.63335 | -70.38441 | 37750 ft | 592 kts | 222° |
| 2026-05-05 19:17 | 44.58150 | -70.47419 | 37752 ft | 591 kts | 222° |
| 2026-05-05 19:18 | 44.52975 | -70.56355 | 37748 ft | 590 kts | 222° |
| 2026-05-05 19:18 | 44.47788 | -70.65280 | 37751 ft | 591 kts | 222° |
| 2026-05-05 19:19 | 44.42599 | -70.74181 | 37751 ft | 590 kts | 222° |
| 2026-05-05 19:19 | 44.37405 | -70.83064 | 37749 ft | 590 kts | 222° |
| 2026-05-05 19:20 | 44.32199 | -70.91944 | 37748 ft | 590 kts | 222° |
| 2026-05-05 19:20 | 44.27020 | -71.00749 | 37750 ft | 592 kts | 221° |
| 2026-05-05 19:21 | 44.21806 | -71.09606 | 37749 ft | 592 kts | 222° |
| 2026-05-05 19:21 | 44.16559 | -71.18463 | 37753 ft | 592 kts | 221° |
| 2026-05-05 19:22 | 44.11316 | -71.27297 | 37751 ft | 592 kts | 221° |
| 2026-05-05 19:22 | 44.06066 | -71.36121 | 37756 ft | 591 kts | 221° |
| 2026-05-05 19:23 | 44.00803 | -71.44910 | 37753 ft | 592 kts | 221° |
| 2026-05-05 19:23 | 43.95527 | -71.53706 | 37753 ft | 593 kts | 221° |
| 2026-05-05 19:24 | 43.90249 | -71.62486 | 37751 ft | 592 kts | 221° |
| 2026-05-05 19:24 | 43.87426 | -71.66517 | 37754 ft | 572 kts | 209° |
| 2026-05-05 19:24 | 43.84437 | -71.70146 | 37753 ft | 573 kts | 210° |
| 2026-05-05 19:25 | 43.78459 | -71.77479 | 37750 ft | 573 kts | 210° |
| 2026-05-05 19:25 | 43.72455 | -71.84721 | 37752 ft | 572 kts | 209° |
| 2026-05-05 19:26 | 43.66425 | -71.91917 | 37748 ft | 573 kts | 209° |
| 2026-05-05 19:26 | 43.60378 | -71.99113 | 37753 ft | 574 kts | 209° |
| 2026-05-05 19:27 | 43.54330 | -72.06298 | 37750 ft | 574 kts | 209° |
| 2026-05-05 19:27 | 43.48288 | -72.13460 | 37747 ft | 573 kts | 209° |
| 2026-05-05 19:28 | 43.42243 | -72.20606 | 37748 ft | 573 kts | 209° |
| 2026-05-05 19:28 | 43.36192 | -72.27736 | 37748 ft | 573 kts | 209° |
| 2026-05-05 19:29 | 43.30188 | -72.34810 | 37752 ft | 572 kts | 209° |
| 2026-05-05 19:29 | 43.24135 | -72.41902 | 37752 ft | 572 kts | 209° |
| 2026-05-05 19:30 | 43.18078 | -72.48966 | 37751 ft | 571 kts | 209° |
| 2026-05-05 19:30 | 43.12020 | -72.56024 | 37749 ft | 571 kts | 209° |
| 2026-05-05 19:31 | 43.05959 | -72.63065 | 37750 ft | 572 kts | 208° |
| 2026-05-05 19:31 | 43.01639 | -72.68072 | 37753 ft | 572 kts | 208° |
| 2026-05-05 19:32 | 42.95571 | -72.75093 | 37747 ft | 572 kts | 208° |
| 2026-05-05 19:32 | 42.89491 | -72.82113 | 37748 ft | 573 kts | 208° |
| 2026-05-05 19:33 | 42.83398 | -72.89123 | 37749 ft | 573 kts | 208° |
| 2026-05-05 19:33 | 42.77301 | -72.96123 | 37750 ft | 573 kts | 208° |
| 2026-05-05 19:34 | 42.71203 | -73.03098 | 37748 ft | 573 kts | 208° |
| 2026-05-05 19:35 | 42.62083 | -73.13550 | 37752 ft | 573 kts | 208° |
| 2026-05-05 19:35 | 42.55979 | -73.20502 | 37751 ft | 573 kts | 208° |
| 2026-05-05 19:36 | 42.49830 | -73.27468 | 37751 ft | 572 kts | 208° |
| 2026-05-05 19:36 | 42.43729 | -73.34347 | 37754 ft | 570 kts | 208° |
| 2026-05-05 19:37 | 42.37619 | -73.41214 | 37748 ft | 571 kts | 208° |
| 2026-05-05 19:37 | 42.31516 | -73.48085 | 37752 ft | 571 kts | 208° |
| 2026-05-05 19:38 | 42.25405 | -73.54940 | 37751 ft | 570 kts | 208° |
| 2026-05-05 19:38 | 42.19294 | -73.61768 | 37748 ft | 570 kts | 208° |
| 2026-05-05 19:39 | 42.13194 | -73.68590 | 37752 ft | 570 kts | 208° |
| 2026-05-05 19:39 | 42.07089 | -73.75396 | 37753 ft | 569 kts | 208° |
| 2026-05-05 19:40 | 42.01026 | -73.82133 | 37751 ft | 569 kts | 208° |
| 2026-05-05 19:40 | 41.94926 | -73.88891 | 37748 ft | 568 kts | 207° |
| 2026-05-05 19:41 | 41.88825 | -73.95631 | 37752 ft | 568 kts | 207° |
| 2026-05-05 19:41 | 41.82712 | -74.02368 | 37747 ft | 568 kts | 208° |
| 2026-05-05 19:42 | 41.76605 | -74.09091 | 37751 ft | 568 kts | 207° |
| 2026-05-05 19:42 | 41.70490 | -74.15794 | 37748 ft | 568 kts | 207° |
| 2026-05-05 19:43 | 41.64375 | -74.22477 | 37748 ft | 568 kts | 207° |
| 2026-05-05 19:43 | 41.58253 | -74.29157 | 37749 ft | 568 kts | 207° |
| 2026-05-05 19:44 | 41.51971 | -74.35308 | 37749 ft | 555 kts | 200° |
| 2026-05-05 19:44 | 41.45501 | -74.40912 | 37750 ft | 554 kts | 199° |
| 2026-05-05 19:45 | 41.39001 | -74.46401 | 37750 ft | 553 kts | 199° |
| 2026-05-05 19:45 | 41.32494 | -74.51854 | 37750 ft | 553 kts | 199° |
| 2026-05-05 19:46 | 41.25983 | -74.57306 | 37750 ft | 553 kts | 199° |
| 2026-05-05 19:46 | 41.19473 | -74.62753 | 37751 ft | 553 kts | 199° |
| 2026-05-05 19:47 | 41.13015 | -74.68147 | 37747 ft | 553 kts | 199° |
| 2026-05-05 19:47 | 41.06462 | -74.73600 | 37747 ft | 560 kts | 204° |
| 2026-05-05 19:48 | 40.99813 | -74.79116 | 37760 ft | 567 kts | 211° |
| 2026-05-05 19:48 | 40.96516 | -74.81857 | 37833 ft | 556 kts | 211° |
| 2026-05-05 19:48 | 40.93274 | -74.84551 | 37582 ft | 544 kts | 211° |
| 2026-05-05 19:48 | 40.90112 | -74.87171 | 37661 ft | 528 kts | 211° |
| 2026-05-05 19:49 | 40.87024 | -74.89721 | 37753 ft | 519 kts | 211° |
| 2026-05-05 19:49 | 40.81060 | -74.94641 | 37756 ft | 496 kts | 212° |
| 2026-05-05 19:49 | 40.78170 | -74.97024 | 37751 ft | 485 kts | 212° |
| 2026-05-05 19:50 | 40.75326 | -74.99366 | 37760 ft | 478 kts | 212° |
| 2026-05-05 19:50 | 40.72553 | -75.01646 | 37750 ft | 462 kts | 212° |
| 2026-05-05 19:50 | 40.69866 | -75.03854 | 37743 ft | 449 kts | 212° |
| 2026-05-05 19:51 | 40.64602 | -75.08174 | 37994 ft | 443 kts | 212° |
| 2026-05-05 19:51 | 40.61998 | -75.10313 | 38239 ft | 436 kts | 216° |
| 2026-05-05 19:51 | 40.59473 | -75.12385 | 38494 ft | 422 kts | 216° |
| 2026-05-05 19:51 | 40.56999 | -75.14402 | 38734 ft | 417 kts | 216° |
| 2026-05-05 19:52 | 40.54532 | -75.16412 | 38861 ft | 416 kts | 216° |
| 2026-05-05 19:52 | 40.49651 | -75.20393 | 38876 ft | 416 kts | 216° |
| 2026-05-05 19:53 | 40.44734 | -75.24400 | 38878 ft | 416 kts | 216° |
| 2026-05-05 19:53 | 40.39811 | -75.28405 | 38858 ft | 416 kts | 216° |
| 2026-05-05 19:54 | 40.34877 | -75.32411 | 38875 ft | 418 kts | 216° |
| 2026-05-05 19:54 | 40.29934 | -75.36416 | 38879 ft | 418 kts | 216° |
| 2026-05-05 19:55 | 40.24980 | -75.40422 | 38895 ft | 418 kts | 216° |
| 2026-05-05 19:55 | 40.20023 | -75.44423 | 38885 ft | 418 kts | 216° |
| 2026-05-05 19:56 | 40.15081 | -75.48408 | 38892 ft | 418 kts | 216° |
| 2026-05-05 19:56 | 40.10131 | -75.52392 | 38897 ft | 418 kts | 216° |
| 2026-05-05 19:57 | 40.05173 | -75.56374 | 38907 ft | 418 kts | 216° |
| 2026-05-05 19:57 | 40.01061 | -75.59672 | 38909 ft | 418 kts | 216° |
| 2026-05-05 19:58 | 39.96097 | -75.63648 | 38910 ft | 419 kts | 216° |
| 2026-05-05 19:58 | 39.91431 | -75.68106 | 38908 ft | 413 kts | 229° |
| 2026-05-05 19:59 | 39.87539 | -75.73568 | 38890 ft | 412 kts | 229° |
| 2026-05-05 19:59 | 39.82884 | -75.77980 | 38800 ft | 421 kts | 209° |
| 2026-05-05 19:59 | 39.80114 | -75.79274 | 38688 ft | 428 kts | 199° |
| 2026-05-05 20:00 | 39.77146 | -75.79877 | 38548 ft | 436 kts | 188° |
| 2026-05-05 20:00 | 39.74085 | -75.79734 | 38442 ft | 445 kts | 176° |
| 2026-05-05 20:00 | 39.71035 | -75.78964 | 38304 ft | 449 kts | 172° |
| 2026-05-05 20:00 | 39.67989 | -75.78018 | 38155 ft | 450 kts | 171° |
| 2026-05-05 20:01 | 39.64948 | -75.77056 | 38028 ft | 450 kts | 171° |
| 2026-05-05 20:01 | 39.61900 | -75.76108 | 37885 ft | 450 kts | 171° |
| 2026-05-05 20:01 | 39.58848 | -75.75171 | 37735 ft | 451 kts | 171° |
| 2026-05-05 20:01 | 39.55788 | -75.74238 | 37605 ft | 453 kts | 171° |
| 2026-05-05 20:02 | 39.52718 | -75.73308 | 37462 ft | 454 kts | 171° |
| 2026-05-05 20:02 | 39.49640 | -75.72377 | 37327 ft | 455 kts | 171° |
| 2026-05-05 20:02 | 39.46641 | -75.71472 | 37199 ft | 456 kts | 171° |
| 2026-05-05 20:02 | 39.43546 | -75.70540 | 37062 ft | 457 kts | 171° |
| 2026-05-05 20:03 | 39.40446 | -75.69607 | 36930 ft | 458 kts | 171° |
| 2026-05-05 20:03 | 39.37340 | -75.68674 | 36802 ft | 459 kts | 171° |
| 2026-05-05 20:03 | 39.34224 | -75.67738 | 36650 ft | 460 kts | 171° |
| 2026-05-05 20:03 | 39.31094 | -75.66800 | 36521 ft | 462 kts | 171° |
| 2026-05-05 20:04 | 39.27960 | -75.65861 | 36388 ft | 463 kts | 171° |
| 2026-05-05 20:04 | 39.24817 | -75.64920 | 36258 ft | 464 kts | 171° |
| 2026-05-05 20:04 | 39.21673 | -75.63979 | 36147 ft | 461 kts | 171° |
| 2026-05-05 20:04 | 39.18586 | -75.63053 | 35968 ft | 449 kts | 171° |
| 2026-05-05 20:05 | 39.15580 | -75.62150 | 35726 ft | 438 kts | 171° |
| 2026-05-05 20:05 | 39.12659 | -75.61275 | 35166 ft | 429 kts | 171° |
| 2026-05-05 20:05 | 39.09748 | -75.60409 | 34629 ft | 427 kts | 171° |
| 2026-05-05 20:05 | 39.06882 | -75.59555 | 34282 ft | 420 kts | 171° |
| 2026-05-05 20:06 | 39.04010 | -75.58703 | 33292 ft | 430 kts | 171° |
| 2026-05-05 20:06 | 39.01042 | -75.57835 | 32118 ft | 443 kts | 171° |
| 2026-05-05 20:06 | 38.97998 | -75.56958 | 31034 ft | 454 kts | 171° |
| 2026-05-05 20:06 | 38.94906 | -75.56048 | 30257 ft | 455 kts | 170° |
| 2026-05-05 20:07 | 38.91884 | -75.55138 | 29688 ft | 450 kts | 169° |
| 2026-05-05 20:07 | 38.88846 | -75.54343 | 29030 ft | 442 kts | 178° |
| 2026-05-05 20:07 | 38.85773 | -75.54413 | 28302 ft | 431 kts | 193° |
| 2026-05-05 20:07 | 38.82948 | -75.55574 | 27196 ft | 427 kts | 212° |
| 2026-05-05 20:08 | 38.80562 | -75.57799 | 26140 ft | 423 kts | 231° |
| 2026-05-05 20:08 | 38.78959 | -75.60829 | 25761 ft | 402 kts | 249° |
| 2026-05-05 20:08 | 38.78180 | -75.64175 | 25330 ft | 386 kts | 263° |
| 2026-05-05 20:08 | 38.77901 | -75.67562 | 24790 ft | 379 kts | 268° |
| 2026-05-05 20:09 | 38.77723 | -75.70908 | 24239 ft | 374 kts | 268° |
| 2026-05-05 20:09 | 38.77546 | -75.74215 | 23684 ft | 370 kts | 267° |
| 2026-05-05 20:09 | 38.77356 | -75.77487 | 23072 ft | 366 kts | 267° |
| 2026-05-05 20:09 | 38.77158 | -75.80715 | 22518 ft | 360 kts | 266° |
| 2026-05-05 20:10 | 38.76957 | -75.83886 | 21975 ft | 354 kts | 265° |
| 2026-05-05 20:10 | 38.76754 | -75.87008 | 21440 ft | 349 kts | 265° |
| 2026-05-05 20:10 | 38.76552 | -75.90081 | 20897 ft | 344 kts | 265° |
| 2026-05-05 20:10 | 38.76350 | -75.93112 | 20365 ft | 339 kts | 265° |
| 2026-05-05 20:11 | 38.76150 | -75.96103 | 19814 ft | 335 kts | 265° |
| 2026-05-05 20:11 | 38.75954 | -75.99025 | 19303 ft | 332 kts | 265° |
| 2026-05-05 20:11 | 38.75756 | -76.01957 | 18785 ft | 329 kts | 264° |
| 2026-05-05 20:11 | 38.75559 | -76.04866 | 18286 ft | 326 kts | 264° |
| 2026-05-05 20:12 | 38.75360 | -76.07743 | 17797 ft | 321 kts | 264° |
| 2026-05-05 20:12 | 38.75162 | -76.10569 | 17309 ft | 316 kts | 264° |
| 2026-05-05 20:12 | 38.74964 | -76.13356 | 16801 ft | 312 kts | 264° |
| 2026-05-05 20:12 | 38.74769 | -76.16109 | 16329 ft | 308 kts | 264° |
| 2026-05-05 20:13 | 38.74575 | -76.18832 | 15840 ft | 305 kts | 264° |
| 2026-05-05 20:13 | 38.74384 | -76.21519 | 15353 ft | 302 kts | 264° |
| 2026-05-05 20:13 | 38.74193 | -76.24181 | 14884 ft | 299 kts | 264° |
| 2026-05-05 20:13 | 38.74003 | -76.26822 | 14394 ft | 296 kts | 264° |
| 2026-05-05 20:14 | 38.73815 | -76.29431 | 13919 ft | 293 kts | 263° |
| 2026-05-05 20:14 | 38.73628 | -76.32023 | 13419 ft | 290 kts | 263° |
| 2026-05-05 20:14 | 38.73443 | -76.34576 | 12943 ft | 286 kts | 263° |
| 2026-05-05 20:14 | 38.73261 | -76.37088 | 12491 ft | 281 kts | 263° |
| 2026-05-05 20:15 | 38.73067 | -76.39555 | 12066 ft | 275 kts | 262° |
| 2026-05-05 20:15 | 38.73109 | -76.42022 | 11242 ft | 286 kts | 278° |
| 2026-05-05 20:15 | 38.73879 | -76.44365 | 10910 ft | 285 kts | 296° |
| 2026-05-05 20:15 | 38.75062 | -76.46360 | 10620 ft | 278 kts | 302° |
| 2026-05-05 20:16 | 38.76320 | -76.48229 | 10099 ft | 276 kts | 303° |
| 2026-05-05 20:16 | 38.77577 | -76.50066 | 9319 ft | 272 kts | 302° |
| 2026-05-05 20:16 | 38.78823 | -76.51895 | 8294 ft | 275 kts | 303° |
| 2026-05-05 20:16 | 38.80092 | -76.53776 | 7360 ft | 281 kts | 304° |
| 2026-05-05 20:17 | 38.81370 | -76.55673 | 6839 ft | 280 kts | 304° |
| 2026-05-05 20:17 | 38.82627 | -76.57534 | 6553 ft | 271 kts | 304° |
| 2026-05-05 20:17 | 38.83841 | -76.59333 | 6267 ft | 264 kts | 304° |
| 2026-05-05 20:17 | 38.85033 | -76.61108 | 5899 ft | 262 kts | 304° |
| 2026-05-05 20:18 | 38.86220 | -76.62879 | 5519 ft | 260 kts | 304° |
| 2026-05-05 20:18 | 38.87397 | -76.64636 | 5160 ft | 258 kts | 304° |
| 2026-05-05 20:18 | 38.88566 | -76.66383 | 4788 ft | 258 kts | 304° |
| 2026-05-05 20:18 | 38.89732 | -76.68125 | 4417 ft | 257 kts | 304° |
| 2026-05-05 20:19 | 38.90883 | -76.69841 | 4139 ft | 248 kts | 304° |
| 2026-05-05 20:19 | 38.91986 | -76.71480 | 3743 ft | 238 kts | 304° |
| 2026-05-05 20:19 | 38.93057 | -76.73080 | 3404 ft | 235 kts | 304° |
| 2026-05-05 20:19 | 38.94117 | -76.74671 | 3051 ft | 235 kts | 304° |
| 2026-05-05 20:20 | 38.95180 | -76.76270 | 2715 ft | 235 kts | 303° |
| 2026-05-05 20:20 | 38.96242 | -76.77866 | 2385 ft | 234 kts | 304° |
| 2026-05-05 20:20 | 38.97266 | -76.79478 | 2032 ft | 231 kts | 298° |
| 2026-05-05 20:20 | 38.98068 | -76.81252 | 1896 ft | 229 kts | 290° |
| 2026-05-05 20:21 | 38.98667 | -76.83109 | 1819 ft | 221 kts | 275° |
| 2026-05-05 20:21 | 38.98426 | -76.84949 | 1819 ft | 207 kts | 235° |
| 2026-05-05 20:21 | 38.97308 | -76.86016 | 1834 ft | 205 kts | 200° |
| 2026-05-05 20:21 | 38.95909 | -76.86392 | 1845 ft | 206 kts | 195° |
| 2026-05-05 20:22 | 38.94535 | -76.86795 | 1841 ft | 205 kts | 195° |
| 2026-05-05 20:22 | 38.93139 | -76.87199 | 1833 ft | 204 kts | 194° |
| 2026-05-05 20:22 | 38.91725 | -76.87223 | 1914 ft | 199 kts | 174° |
| 2026-05-05 20:22 | 38.90447 | -76.86995 | 1775 ft | 173 kts | 181° |
| 2026-05-05 20:23 | 38.89331 | -76.86975 | 1543 ft | 150 kts | 185° |
| 2026-05-05 20:23 | 38.88347 | -76.87031 | 1347 ft | 129 kts | 188° |
| 2026-05-05 20:23 | 38.87499 | -76.87043 | 1164 ft | 117 kts | 184° |
| 2026-05-05 20:23 | 38.86691 | -76.87058 | 1086 ft | 116 kts | 186° |
| 2026-05-05 20:24 | 38.85834 | -76.87055 | 1059 ft | 127 kts | 184° |
| 2026-05-05 20:24 | 38.84989 | -76.87072 | 888 ft | 116 kts | 183° |
| 2026-05-05 20:24 | 38.84213 | -76.87079 | 681 ft | 110 kts | 183° |
| 2026-05-05 20:24 | 38.83449 | -76.87074 | 522 ft | 108 kts | 182° |
| 2026-05-05 20:25 | 38.82698 | -76.87071 | 383 ft | 108 kts | 181° |
| 2026-05-05 20:25 | 38.81960 | -76.87074 | 281 ft | 99 kts | 181° |
| 2026-05-05 20:25 | 38.81413 | -76.87067 | 275 ft | 54 kts | 180° |
| 2026-05-05 20:25 | 38.81128 | -76.87066 | 278 ft | 37 kts | 179° |
| 2026-05-05 20:26 | 38.80963 | -76.87073 | 279 ft | 15 kts | 206° |
| 2026-05-05 20:26 | 38.80945 | -76.87158 | 279 ft | 9 kts | 271° |
| 2026-05-05 20:26 | 38.80946 | -76.87254 | 278 ft | 12 kts | 268° |
| 2026-05-05 20:26 | 38.80946 | -76.87341 | 278 ft | 8 kts | 270° |
| 2026-05-05 20:27 | 38.80946 | -76.87395 | 278 ft | 6 kts | 270° |
| 2026-05-05 20:27 | 38.80931 | -76.87442 | 280 ft | 5 kts | 215° |
| 2026-05-05 20:27 | 38.80889 | -76.87448 | 278 ft | 7 kts | 177° |
| 2026-05-05 20:27 | 38.80836 | -76.87446 | 278 ft | 8 kts | 179° |
| 2026-05-05 20:28 | 38.80803 | -76.87464 | 278 ft | 2 kts | 247° |
| 2026-05-05 20:28 | 38.80803 | -76.87503 | 278 ft | 8 kts | 274° |
| 2026-05-05 20:28 | 38.80805 | -76.87580 | 275 ft | 10 kts | 271° |
| 2026-05-05 20:28 | 38.80804 | -76.87655 | 271 ft | 6 kts | 269° |
| 2026-05-05 20:29 | 38.80805 | -76.87713 | 271 ft | 6 kts | 275° |
| 2026-05-05 20:29 | 38.80815 | -76.87729 | 274 ft | 3 kts | 321° |
| 2026-05-05 20:29 | 38.80825 | -76.87735 | 271 ft | 0 kts | 353° |
| 2026-05-05 20:29 | 38.80837 | -76.87734 | 271 ft | 4 kts | 0° |
| 2026-05-05 20:30 | 38.80858 | -76.87734 | 271 ft | 0 kts | 360° |